createdAt,value
2017-12-03T00:00:14.518Z,11.60
2017-12-03T00:02:41.999Z,11.80
2017-12-03T00:05:10.258Z,11.60
2017-12-03T00:07:37.802Z,11.37
2017-12-03T00:10:05.365Z,10.53
2017-12-03T00:12:32.839Z,13.13
2017-12-03T00:15:01.192Z,12.20
2017-12-03T00:17:29.515Z,12.07
2017-12-03T00:19:57.086Z,11.90
2017-12-03T00:22:24.586Z,11.17
2017-12-03T00:24:52.874Z,11.80
2017-12-03T00:27:21.193Z,10.67
2017-12-03T00:29:48.667Z,13.87
2017-12-03T00:32:16.123Z,14.53
2017-12-03T00:34:43.578Z,11.27
2017-12-03T00:37:11.059Z,11.17
2017-12-03T00:39:38.514Z,11.70
2017-12-03T00:42:05.970Z,10.63
2017-12-03T00:44:33.472Z,10.30
2017-12-03T00:47:00.959Z,9.77
2017-12-03T00:49:28.543Z,10.50
2017-12-03T00:51:56.001Z,10.77
2017-12-03T00:54:23.458Z,9.63
2017-12-03T00:56:50.939Z,9.77
2017-12-03T00:59:18.886Z,12.60
2017-12-03T01:01:47.176Z,10.13
2017-12-03T01:04:15.431Z,12.43
2017-12-03T01:06:42.983Z,11.60
2017-12-03T01:09:10.457Z,11.53
2017-12-03T01:11:38.712Z,10.47
2017-12-03T01:14:06.182Z,10.97
2017-12-03T01:16:33.751Z,11.83
2017-12-03T01:19:02.015Z,11.37
2017-12-03T01:21:30.275Z,12.90
2017-12-03T01:23:57.833Z,9.30
2017-12-03T01:26:25.295Z,10.07
2017-12-03T01:28:52.803Z,12.10
2017-12-03T01:31:20.302Z,12.10
2017-12-03T01:33:48.846Z,16.23
2017-12-03T01:36:16.326Z,11.10
2017-12-03T01:38:45.064Z,10.97
2017-12-03T01:41:12.543Z,9.80
2017-12-03T01:43:40.043Z,9.63
2017-12-03T01:46:08.306Z,12.70
2017-12-03T01:48:35.839Z,10.80
2017-12-03T01:51:03.325Z,9.70
2017-12-03T01:53:30.883Z,12.23
2017-12-03T01:55:58.440Z,10.20
2017-12-03T01:58:26.003Z,11.53
2017-12-03T02:00:53.462Z,12.10
2017-12-03T02:03:21.072Z,10.70
2017-12-03T02:05:48.555Z,13.07
2017-12-03T02:08:16.040Z,13.17
2017-12-03T02:10:44.315Z,11.53
2017-12-03T02:13:11.856Z,13.03
2017-12-03T02:15:39.451Z,13.40
2017-12-03T02:18:06.974Z,14.60
2017-12-03T02:20:34.470Z,15.90
2017-12-03T02:23:01.996Z,14.33
2017-12-03T02:25:31.036Z,14.83
2017-12-03T02:27:58.494Z,15.90
2017-12-03T02:30:25.991Z,16.43
2017-12-03T02:32:53.472Z,13.57
2017-12-03T02:35:21.692Z,12.77
2017-12-03T02:37:49.177Z,15.67
2017-12-03T02:40:16.735Z,12.80
2017-12-03T02:42:44.189Z,14.13
2017-12-03T02:45:11.684Z,12.60
2017-12-03T02:47:39.139Z,13.90
2017-12-03T02:50:06.613Z,14.43
2017-12-03T02:52:34.087Z,13.80
2017-12-03T02:55:01.581Z,14.60
2017-12-03T02:57:29.827Z,14.80
2017-12-03T02:59:57.311Z,14.77
2017-12-03T03:02:25.530Z,12.17
2017-12-03T03:04:52.990Z,14.20
2017-12-03T03:07:20.491Z,15.17
2017-12-03T03:09:48.049Z,12.83
2017-12-03T03:12:15.511Z,12.77
2017-12-03T03:14:43.798Z,12.37
2017-12-03T03:17:11.241Z,12.23
2017-12-03T03:19:39.507Z,13.90
2017-12-03T03:22:07.064Z,15.93
2017-12-03T03:24:34.563Z,13.10
2017-12-03T03:27:02.024Z,15.00
2017-12-03T03:29:29.529Z,13.80
2017-12-03T03:31:57.045Z,12.27
2017-12-03T03:34:24.542Z,13.40
2017-12-03T03:36:52.115Z,13.63
2017-12-03T03:39:20.372Z,13.73
2017-12-03T03:41:47.865Z,15.17
2017-12-03T03:44:15.351Z,14.17
2017-12-03T03:46:42.811Z,15.23
2017-12-03T03:49:10.405Z,13.80
2017-12-03T03:51:37.975Z,13.60
2017-12-03T03:54:06.219Z,13.50
2017-12-03T03:56:33.688Z,13.63
2017-12-03T03:59:01.247Z,13.23
2017-12-03T04:01:28.726Z,14.37
2017-12-03T04:03:56.946Z,13.90
2017-12-03T04:06:24.409Z,13.20
2017-12-03T04:08:51.884Z,13.93
2017-12-03T04:11:19.449Z,12.00
2017-12-03T04:13:46.961Z,12.30
2017-12-03T04:16:15.163Z,12.50
2017-12-03T04:18:42.688Z,12.03
2017-12-03T04:21:10.163Z,12.13
2017-12-03T04:23:37.622Z,12.73
2017-12-03T04:26:05.106Z,12.53
2017-12-03T04:28:33.383Z,11.00
2017-12-03T04:31:00.932Z,13.50
2017-12-03T04:33:28.403Z,12.00
2017-12-03T04:35:56.626Z,11.93
2017-12-03T04:38:24.099Z,12.93
2017-12-03T04:40:51.574Z,10.10
2017-12-03T04:43:19.035Z,8.87
2017-12-03T04:45:47.320Z,9.17
2017-12-03T04:48:15.575Z,10.30
2017-12-03T04:50:43.037Z,10.13
2017-12-03T04:53:10.591Z,9.00
2017-12-03T04:55:38.051Z,10.60
2017-12-03T04:58:05.503Z,10.30
2017-12-03T05:00:33.219Z,8.67
2017-12-03T05:03:00.669Z,9.63
2017-12-03T05:05:28.142Z,9.13
2017-12-03T05:07:55.687Z,10.20
2017-12-03T05:10:23.137Z,9.70
2017-12-03T05:12:50.628Z,10.30
2017-12-03T05:15:18.079Z,8.20
2017-12-03T05:17:45.556Z,8.37
2017-12-03T05:20:13.071Z,9.93
2017-12-03T05:22:40.526Z,9.57
2017-12-03T05:25:07.978Z,9.10
2017-12-03T05:27:35.476Z,10.07
2017-12-03T05:30:02.963Z,9.93
2017-12-03T05:32:31.213Z,10.17
2017-12-03T05:34:58.669Z,10.57
2017-12-03T05:37:26.142Z,10.07
2017-12-03T05:39:54.371Z,11.10
2017-12-03T05:42:21.846Z,9.67
2017-12-03T05:44:49.326Z,9.87
2017-12-03T05:47:17.543Z,8.83
2017-12-03T05:49:45.031Z,12.20
2017-12-03T05:52:12.491Z,12.13
2017-12-03T05:54:39.951Z,10.20
2017-12-03T05:57:07.509Z,11.30
2017-12-03T05:59:34.967Z,10.53
2017-12-03T06:02:03.243Z,11.20
2017-12-03T06:04:30.747Z,11.43
2017-12-03T06:06:58.207Z,11.53
2017-12-03T06:09:25.703Z,12.17
2017-12-03T06:11:53.273Z,11.37
2017-12-03T06:14:20.729Z,10.87
2017-12-03T06:16:48.991Z,14.00
2017-12-03T06:19:16.503Z,13.73
2017-12-03T06:21:43.956Z,10.90
2017-12-03T06:24:11.442Z,12.73
2017-12-03T06:26:39.014Z,13.03
2017-12-03T06:29:06.633Z,13.70
2017-12-03T06:31:34.099Z,12.07
2017-12-03T06:34:01.592Z,12.97
2017-12-03T06:36:29.211Z,11.70
2017-12-03T06:38:56.687Z,10.93
2017-12-03T06:41:24.169Z,12.67
2017-12-03T06:43:52.495Z,11.60
2017-12-03T06:46:19.996Z,13.13
2017-12-03T06:48:47.551Z,12.20
2017-12-03T06:51:15.995Z,10.90
2017-12-03T06:53:43.485Z,10.70
2017-12-03T06:56:10.999Z,11.23
2017-12-03T06:58:38.494Z,10.93
2017-12-03T07:01:05.970Z,10.83
2017-12-03T07:03:35.002Z,11.57
2017-12-03T07:06:02.486Z,21.43
2017-12-03T07:08:29.966Z,10.30
2017-12-03T07:10:58.922Z,9.70
2017-12-03T07:13:26.382Z,10.33
2017-12-03T07:15:53.968Z,15.10
2017-12-03T07:18:21.447Z,11.80
2017-12-03T07:20:49.675Z,10.47
2017-12-03T07:23:17.149Z,11.80
2017-12-03T07:25:44.623Z,11.07
2017-12-03T07:28:12.897Z,10.60
2017-12-03T07:30:41.114Z,11.57
2017-12-03T07:33:08.572Z,11.60
2017-12-03T07:35:36.095Z,11.07
2017-12-03T07:38:03.555Z,13.70
2017-12-03T07:40:31.798Z,13.60
2017-12-03T07:42:59.286Z,14.70
2017-12-03T07:45:27.511Z,13.83
2017-12-03T07:47:54.988Z,13.70
2017-12-03T07:50:23.247Z,14.10
2017-12-03T07:52:50.708Z,14.47
2017-12-03T07:55:18.271Z,14.10
2017-12-03T07:57:45.747Z,15.00
2017-12-03T08:00:14.001Z,13.40
2017-12-03T08:02:41.563Z,14.63
2017-12-03T08:05:09.839Z,13.13
2017-12-03T08:07:38.067Z,12.93
2017-12-03T08:10:05.546Z,14.13
2017-12-03T08:12:33.159Z,16.70
2017-12-03T08:15:00.626Z,14.20
2017-12-03T08:17:28.094Z,14.00
2017-12-03T08:19:55.563Z,12.80
2017-12-03T08:22:23.070Z,14.83
2017-12-03T08:24:51.291Z,13.57
2017-12-03T08:27:20.415Z,16.47
2017-12-03T08:29:47.891Z,13.20
2017-12-03T08:32:16.140Z,14.70
2017-12-03T08:34:43.611Z,13.60
2017-12-03T08:37:11.850Z,13.70
2017-12-03T08:39:39.432Z,13.10
2017-12-03T08:42:06.887Z,14.20
2017-12-03T08:44:34.361Z,12.43
2017-12-03T08:47:02.619Z,11.93
2017-12-03T08:49:30.096Z,11.13
2017-12-03T08:51:58.322Z,11.83
2017-12-03T08:54:25.963Z,11.43
2017-12-03T08:56:53.424Z,13.23
2017-12-03T08:59:21.021Z,12.70
2017-12-03T09:01:49.454Z,10.57
2017-12-03T09:04:16.928Z,10.97
2017-12-03T09:06:44.415Z,11.30
2017-12-03T09:09:12.652Z,13.37
2017-12-03T09:11:40.131Z,16.03
2017-12-03T09:14:07.703Z,12.97
2017-12-03T09:16:35.975Z,13.83
2017-12-03T09:19:03.528Z,11.10
2017-12-03T09:21:31.006Z,10.77
2017-12-03T09:23:59.222Z,10.03
2017-12-03T09:26:26.682Z,11.67
2017-12-03T09:28:54.227Z,10.07
2017-12-03T09:31:21.687Z,11.50
2017-12-03T09:33:49.147Z,11.80
2017-12-03T09:36:16.641Z,11.73
2017-12-03T09:38:44.099Z,19.40
2017-12-03T09:41:11.570Z,13.67
2017-12-03T09:43:39.831Z,13.23
2017-12-03T09:46:08.083Z,11.50
2017-12-03T09:48:35.663Z,11.30
2017-12-03T09:51:03.902Z,13.60
2017-12-03T09:53:31.386Z,20.33
2017-12-03T09:55:58.874Z,15.10
2017-12-03T09:58:26.356Z,12.30
2017-12-03T10:00:53.913Z,13.77
2017-12-03T10:03:21.383Z,10.67
2017-12-03T10:05:49.595Z,12.40
2017-12-03T10:08:17.916Z,12.90
2017-12-03T10:10:45.363Z,13.87
2017-12-03T10:13:12.825Z,13.50
2017-12-03T10:15:40.322Z,15.27
2017-12-03T10:18:07.945Z,15.30
2017-12-03T10:20:35.439Z,20.17
2017-12-03T10:23:02.916Z,16.10
2017-12-03T10:25:31.143Z,12.40
2017-12-03T10:27:58.642Z,13.63
2017-12-03T10:30:26.862Z,12.67
2017-12-03T10:32:54.563Z,14.53
2017-12-03T10:35:22.193Z,13.87
2017-12-03T10:38:01.589Z,13.37
2017-12-03T10:40:29.811Z,22.03
2017-12-03T10:42:57.275Z,14.37
2017-12-03T10:45:24.755Z,15.20
2017-12-03T10:47:53.020Z,18.40
2017-12-03T10:50:20.495Z,15.30
2017-12-03T10:52:48.754Z,15.43
2017-12-03T10:55:16.274Z,18.57
2017-12-03T10:57:43.731Z,16.93
2017-12-03T11:00:11.212Z,16.63
2017-12-03T11:02:38.683Z,25.47
2017-12-03T11:05:06.949Z,16.43
2017-12-03T11:07:34.406Z,17.80
2017-12-03T11:10:01.961Z,15.83
2017-12-03T11:12:29.424Z,17.93
2017-12-03T11:14:56.987Z,15.33
2017-12-03T11:17:25.219Z,16.00
2017-12-03T11:19:52.695Z,16.83
2017-12-03T11:22:20.187Z,17.17
2017-12-03T11:24:47.647Z,18.60
2017-12-03T11:27:15.227Z,14.77
2017-12-03T11:29:42.723Z,15.13
2017-12-03T11:32:10.183Z,16.10
2017-12-03T11:34:37.668Z,13.43
2017-12-03T11:37:05.895Z,14.27
2017-12-03T11:39:33.354Z,15.07
2017-12-03T11:42:00.828Z,18.80
2017-12-03T11:44:29.055Z,20.53
2017-12-03T11:46:56.650Z,15.23
2017-12-03T11:49:24.272Z,17.20
2017-12-03T11:51:51.788Z,17.63
2017-12-03T11:54:20.042Z,15.33
2017-12-03T11:56:47.503Z,15.93
2017-12-03T11:59:15.037Z,16.00
2017-12-03T12:01:42.574Z,15.27
2017-12-03T12:04:10.130Z,18.07
2017-12-03T12:06:37.639Z,16.40
2017-12-03T12:09:05.899Z,15.77
2017-12-03T12:11:33.371Z,18.07
2017-12-03T12:14:01.619Z,14.67
2017-12-03T12:16:29.194Z,14.80
2017-12-03T12:18:57.472Z,15.30
2017-12-03T12:21:24.939Z,13.90
2017-12-03T12:23:53.207Z,14.00
2017-12-03T12:26:21.530Z,15.90
2017-12-03T12:28:49.742Z,19.20
2017-12-03T12:31:17.230Z,20.93
2017-12-03T12:33:45.481Z,14.33
2017-12-03T12:36:13.093Z,13.23
2017-12-03T12:38:40.547Z,13.97
2017-12-03T12:41:08.049Z,14.77
2017-12-03T12:43:45.822Z,13.47
2017-12-03T12:46:13.379Z,13.23
2017-12-03T12:48:40.862Z,13.80
2017-12-03T12:51:08.329Z,13.90
2017-12-03T12:53:36.596Z,14.03
2017-12-03T12:56:04.863Z,13.50
2017-12-03T12:58:32.856Z,15.10
2017-12-03T13:01:01.107Z,14.53
2017-12-03T13:03:29.441Z,12.80
2017-12-03T13:05:56.998Z,16.30
2017-12-03T13:08:24.605Z,13.47
2017-12-03T13:10:52.067Z,13.63
2017-12-03T13:13:20.295Z,13.10
2017-12-03T13:15:47.815Z,15.43
2017-12-03T13:18:16.043Z,14.50
2017-12-03T13:20:43.511Z,15.37
2017-12-03T13:23:10.991Z,14.63
2017-12-03T13:25:39.238Z,18.97
2017-12-03T13:28:06.711Z,14.70
2017-12-03T13:30:34.936Z,14.80
2017-12-03T13:33:02.426Z,14.90
2017-12-03T13:35:29.943Z,16.77
2017-12-03T13:37:57.397Z,14.60
2017-12-03T13:40:24.892Z,16.17
2017-12-03T13:42:52.375Z,14.00
2017-12-03T13:45:20.639Z,15.20
2017-12-03T13:47:48.115Z,18.40
2017-12-03T13:50:15.651Z,18.43
2017-12-03T13:52:43.939Z,17.33
2017-12-03T13:55:12.191Z,20.00
2017-12-03T13:57:39.659Z,20.20
2017-12-03T14:00:07.928Z,18.57
2017-12-03T14:02:35.381Z,16.93
2017-12-03T14:05:02.884Z,18.20
2017-12-03T14:07:30.342Z,15.30
2017-12-03T14:09:57.815Z,19.20
2017-12-03T14:12:25.286Z,14.70
2017-12-03T14:14:52.859Z,15.13
2017-12-03T14:17:20.425Z,12.80
2017-12-03T14:19:47.982Z,15.10
2017-12-03T14:22:15.536Z,15.83
2017-12-03T14:24:43.771Z,19.70
2017-12-03T14:27:11.279Z,15.07
2017-12-03T14:29:39.503Z,16.20
2017-12-03T14:32:07.095Z,17.57
2017-12-03T14:34:34.578Z,16.07
2017-12-03T14:37:02.807Z,16.80
2017-12-03T14:39:30.301Z,15.83
2017-12-03T14:41:58.523Z,15.13
2017-12-03T14:44:26.019Z,14.97
2017-12-03T14:46:54.247Z,14.33
2017-12-03T14:49:21.702Z,15.23
2017-12-03T14:51:49.179Z,15.07
2017-12-03T14:54:16.713Z,14.23
2017-12-03T14:56:44.174Z,18.70
2017-12-03T14:59:11.636Z,14.70
2017-12-03T15:01:39.094Z,14.50
2017-12-03T15:04:06.645Z,16.27
2017-12-03T15:06:34.131Z,15.03
2017-12-03T15:09:01.611Z,17.60
2017-12-03T15:11:29.831Z,13.23
2017-12-03T15:13:57.415Z,19.57
2017-12-03T15:16:26.397Z,15.77
2017-12-03T15:18:53.854Z,14.13
2017-12-03T15:21:21.316Z,13.70
2017-12-03T15:23:48.795Z,12.73
2017-12-03T15:26:17.069Z,16.00
2017-12-03T15:28:45.310Z,16.23
2017-12-03T15:31:12.795Z,12.70
2017-12-03T15:33:40.282Z,17.80
2017-12-03T15:36:07.855Z,16.80
2017-12-03T15:38:35.303Z,17.00
2017-12-03T15:41:02.775Z,14.83
2017-12-03T15:43:30.323Z,15.10
2017-12-03T15:45:57.803Z,13.93
2017-12-03T15:48:25.294Z,14.33
2017-12-03T15:50:53.527Z,13.57
2017-12-03T15:53:21.010Z,10.80
2017-12-03T15:55:48.578Z,14.13
2017-12-03T15:58:16.048Z,12.23
2017-12-03T16:00:44.354Z,14.07
2017-12-03T16:03:11.820Z,14.53
2017-12-03T16:05:39.311Z,13.57
2017-12-03T16:08:06.778Z,14.30
2017-12-03T16:10:35.018Z,12.40
2017-12-03T16:13:02.490Z,16.43
2017-12-03T16:15:29.963Z,13.17
2017-12-03T16:17:57.514Z,12.87
2017-12-03T16:20:25.071Z,12.23
2017-12-03T16:22:52.544Z,13.27
2017-12-03T16:25:20.854Z,19.50
2017-12-03T16:27:48.379Z,12.73
2017-12-03T16:30:16.586Z,12.30
2017-12-03T16:32:44.073Z,12.97
2017-12-03T16:35:11.597Z,14.93
2017-12-03T16:37:39.055Z,14.20
2017-12-03T16:40:06.592Z,12.83
2017-12-03T16:42:34.983Z,14.17
2017-12-03T16:45:02.467Z,12.93
2017-12-03T16:47:29.945Z,12.63
2017-12-03T16:49:57.501Z,13.40
2017-12-03T16:52:25.064Z,13.50
2017-12-03T16:54:52.524Z,13.97
2017-12-03T16:57:20.006Z,15.43
2017-12-03T16:59:47.482Z,15.37
2017-12-03T17:02:14.963Z,14.93
2017-12-03T17:04:42.410Z,15.10
2017-12-03T17:07:09.880Z,17.27
2017-12-03T17:09:37.483Z,17.33
2017-12-03T17:12:05.711Z,16.37
2017-12-03T17:14:33.289Z,16.40
2017-12-03T17:17:00.744Z,15.37
2017-12-03T17:19:28.302Z,17.27
2017-12-03T17:21:55.868Z,20.40
2017-12-03T17:24:24.094Z,16.47
2017-12-03T17:26:51.591Z,17.57
2017-12-03T17:29:19.107Z,18.93
2017-12-03T17:31:46.562Z,18.33
2017-12-03T17:34:14.213Z,16.43
2017-12-03T17:36:41.664Z,17.07
2017-12-03T17:39:09.171Z,20.23
2017-12-03T17:41:37.407Z,17.60
2017-12-03T17:44:04.863Z,18.67
2017-12-03T17:46:32.328Z,20.43
2017-12-03T17:48:59.803Z,17.23
2017-12-03T17:51:27.271Z,16.23
2017-12-03T17:53:54.739Z,17.40
2017-12-03T17:56:22.974Z,20.30
2017-12-03T17:58:50.468Z,18.53
2017-12-03T18:01:18.692Z,18.13
2017-12-03T18:03:46.193Z,20.27
2017-12-03T18:06:14.469Z,18.33
2017-12-03T18:08:41.930Z,18.23
2017-12-03T18:11:10.204Z,16.90
2017-12-03T18:13:38.474Z,18.83
2017-12-03T18:16:05.943Z,18.00
2017-12-03T18:18:34.248Z,18.90
2017-12-03T18:21:01.751Z,22.80
2017-12-03T18:23:29.211Z,22.17
2017-12-03T18:25:56.703Z,22.40
2017-12-03T18:28:24.324Z,17.80
2017-12-03T18:30:51.878Z,22.40
2017-12-03T18:33:19.359Z,20.40
2017-12-03T18:35:47.590Z,21.20
2017-12-03T18:38:15.090Z,19.43
2017-12-03T18:40:43.319Z,20.87
2017-12-03T18:43:10.783Z,20.30
2017-12-03T18:45:38.258Z,22.43
2017-12-03T18:48:06.581Z,20.70
2017-12-03T18:50:34.035Z,21.90
2017-12-03T18:53:01.594Z,24.27
2017-12-03T18:55:29.054Z,23.80
2017-12-03T18:57:56.511Z,21.27
2017-12-03T19:00:24.024Z,22.80
2017-12-03T19:02:52.258Z,21.93
2017-12-03T19:05:19.736Z,20.60
2017-12-03T19:07:48.727Z,22.00
2017-12-03T19:10:16.194Z,23.70
2017-12-03T19:12:44.491Z,21.17
2017-12-03T19:15:12.071Z,20.20
2017-12-03T19:17:39.589Z,21.60
2017-12-03T19:20:07.057Z,24.13
2017-12-03T19:22:35.278Z,24.70
2017-12-03T19:25:02.775Z,23.83
2017-12-03T19:27:31.003Z,22.23
2017-12-03T19:29:58.476Z,21.73
2017-12-03T19:32:26.070Z,21.50
2017-12-03T19:34:54.299Z,20.60
2017-12-03T19:37:21.790Z,20.70
2017-12-03T19:39:50.047Z,26.63
2017-12-03T19:42:17.515Z,22.33
2017-12-03T19:44:45.120Z,23.07
2017-12-03T19:47:12.573Z,21.00
2017-12-03T19:49:40.059Z,20.70
2017-12-03T19:52:07.932Z,21.13
2017-12-03T19:54:36.423Z,20.53
2017-12-03T19:57:03.979Z,20.77
2017-12-03T19:59:31.542Z,22.50
2017-12-03T20:01:59.015Z,23.20
2017-12-03T20:04:27.271Z,20.00
2017-12-03T20:06:55.507Z,21.20
2017-12-03T20:09:23.094Z,21.33
2017-12-03T20:11:50.562Z,21.93
2017-12-03T20:14:18.888Z,24.00
2017-12-03T20:16:46.351Z,22.37
2017-12-03T20:19:13.843Z,22.10
2017-12-03T20:21:41.362Z,20.90
2017-12-03T20:24:08.856Z,25.83
2017-12-03T20:26:36.343Z,22.43
2017-12-03T20:29:03.803Z,25.77
2017-12-03T20:31:31.266Z,22.33
2017-12-03T20:33:58.738Z,19.60
2017-12-03T20:36:26.198Z,23.60
2017-12-03T20:38:53.687Z,24.43
2017-12-03T20:41:21.151Z,22.27
2017-12-03T20:43:48.610Z,23.33
2017-12-03T20:46:16.899Z,23.30
2017-12-03T20:48:45.151Z,26.07
2017-12-03T20:51:12.623Z,23.10
2017-12-03T20:53:40.899Z,23.80
2017-12-03T20:56:09.122Z,23.23
2017-12-03T20:58:36.618Z,22.87
2017-12-03T21:01:04.122Z,23.27
2017-12-03T21:03:31.583Z,21.33
2017-12-03T21:05:59.067Z,23.53
2017-12-03T21:08:26.597Z,22.90
2017-12-03T21:10:54.055Z,23.80
2017-12-03T21:13:21.559Z,23.33
2017-12-03T21:15:49.014Z,25.20
2017-12-03T21:18:17.311Z,22.00
2017-12-03T21:20:45.567Z,24.60
2017-12-03T21:23:13.822Z,21.60
2017-12-03T21:25:41.402Z,23.77
2017-12-03T21:28:09.635Z,22.60
2017-12-03T21:30:37.134Z,21.13
2017-12-03T21:33:05.381Z,22.73
2017-12-03T21:35:32.842Z,22.83
2017-12-03T21:38:00.319Z,24.13
2017-12-03T21:40:28.559Z,20.53
2017-12-03T21:42:56.147Z,19.53
2017-12-03T21:45:24.402Z,20.10
2017-12-03T21:47:51.932Z,20.87
2017-12-03T21:50:19.466Z,18.00
2017-12-03T21:52:46.990Z,19.30
2017-12-03T21:55:15.223Z,19.10
2017-12-03T21:57:42.751Z,18.00
2017-12-03T22:00:10.529Z,17.63
2017-12-03T22:02:37.974Z,19.60
2017-12-03T22:05:05.502Z,17.90
2017-12-03T22:07:33.817Z,16.73
2017-12-03T22:10:01.303Z,15.03
2017-12-03T22:12:28.794Z,16.23
2017-12-03T22:14:57.031Z,17.30
2017-12-03T22:17:24.613Z,15.77
2017-12-03T22:19:52.095Z,17.57
2017-12-03T22:22:19.598Z,14.10
2017-12-03T22:24:47.086Z,16.20
2017-12-03T22:27:15.331Z,15.00
2017-12-03T22:29:42.918Z,13.00
2017-12-03T22:32:11.283Z,15.47
2017-12-03T22:34:38.747Z,13.73
2017-12-03T22:37:07.428Z,13.17
2017-12-03T22:39:34.907Z,12.30
2017-12-03T22:42:03.135Z,15.33
2017-12-03T22:44:30.599Z,13.00
2017-12-03T22:46:58.172Z,13.20
2017-12-03T22:49:25.729Z,11.63
2017-12-03T22:51:53.232Z,11.60
2017-12-03T22:54:20.847Z,12.30
2017-12-03T22:56:49.123Z,11.60
2017-12-03T22:59:16.683Z,12.00
2017-12-03T23:01:44.923Z,10.93
2017-12-03T23:04:13.215Z,11.27
2017-12-03T23:06:40.763Z,11.13
2017-12-03T23:09:08.227Z,10.57
2017-12-03T23:11:35.687Z,9.83
2017-12-03T23:14:03.284Z,11.93
2017-12-03T23:16:31.527Z,11.60
2017-12-03T23:18:59.003Z,11.00
2017-12-03T23:21:27.263Z,11.40
2017-12-03T23:23:55.498Z,13.77
2017-12-03T23:26:22.966Z,10.90
2017-12-03T23:28:50.450Z,11.40
2017-12-03T23:31:18.693Z,10.97
2017-12-03T23:33:46.150Z,11.37
2017-12-03T23:36:13.630Z,9.83
2017-12-03T23:38:41.870Z,10.13
2017-12-03T23:41:09.319Z,9.97
2017-12-03T23:43:36.799Z,11.10
2017-12-03T23:46:04.270Z,9.73
2017-12-03T23:48:31.726Z,10.90
2017-12-03T23:50:59.996Z,11.70
2017-12-03T23:53:27.468Z,9.30
2017-12-03T23:55:56.551Z,9.37
2017-12-03T23:58:25.563Z,8.03
